Conestoga, PA (17516)

9:26 PM EDT on April 24, 2015 (GMT -0400)
Conestoga Township | | Change Station
CLOSE
Current Station
Personal Weather Station
Location: Conestoga, PA
Elevation: 480 ft
Nearby Weather Stations
Active Advisory: Freeze Warning

Elev 480 ft 39.95 °N, 76.33 °W | Updated 2 seconds ago

Clear
Clear
47.6 °F
Feels Like 48 °F
N
0.0
Wind Variable Wind from NW
Gusts 2.0 mph

Today
High -- | Low -- °F
--% Chance of Precip.
Yesterday
High -- | Low -- °F
Precip. -- in
6:15 AM 7:52 PM
Waxing Crescent, 41% visible
Pressure 29.92 in
Visibility 10.0 miles
Clouds Clear
Windchill 48 °F
Dew Point 24 °F
Humidity 39%
Rainfall 0.00 in
Snow Depth Not available.
UV 0.0 out of 12
Pollen 10.70 out of 12
Air Quality Not available.
Flu Activity Sporadic
METAR KLNS 250053Z 31007KT 10SM CLR 08/M08 A2991 RMK AO2 SLP130 T00781078

More Conditions Fewer Conditions

Pressure 29.92 in
Visibility 10.0 miles
Clouds Clear
Windchill 48 °F
Dew Point 24 °F
Humidity 39%
Rainfall 0.00 in
Snow Depth Not available.
UV 0.0 out of 12
Pollen 10.70 out of 12
Air Quality Not available.
Flu Activity Sporadic
METAR KLNS 250053Z 31007KT 10SM CLR 08/M08 A2991 RMK AO2 SLP130 T00781078

More Conditions Fewer Conditions

10-Day Weather Forecast

Almanac

Astronomy

Apr. 24, 2015 Rise Set
Actual Time
Civil Twilight
Nautical Twilight
Astronomical Twilight
Moon
Length of Visible Light
Length of Day
Tomorrow will be .
, % of the Moon is Illuminated

Today's Extremes

State Highs State Lows

Community

WunderPhotos

Upload Photos

1,816,544 photos uploaded!

WunderBlogs® & News

Nearby

Air Quality

  Air Quality AQ Index Pollutant
Not available.

Snow Depth

Station Depth Elevation

Earthquake Activity

City Distance Mag. Time & Date
Minimum magnitude displayed is 2.5.

Coastal Water Temperatures

Place Temperature

Stations

Nearby Weather Stations

Station Location Temp. Windchill Dew Point Humidity Wind Precip. Elev Updated Type
                   
Freeze Warning
Statement as of 2:02 PM EDT on April 24, 2015

... Freeze warning in effect from 2 am to 9 am EDT Saturday...

The National Weather Service in State College has issued a freeze
warning... which is in effect from 2 am to 9 am EDT Saturday. The
freeze watch is no longer in effect.

* Minimum temperatures... low temperatures between 28 and 32
degrees Saturday morning.

* Impacts... possible damage to sensitive crops and vegetation.

Precautionary/preparedness actions...

Those with agricultural or gardening interests should protect
sensitive crops and vegetation. Potted plants normally left
outdoors should be covered or brought inside.



CR